createdAt,value
2023-09-08T00:01:34.608Z,100160.09
2023-09-08T00:04:37.477Z,100155.72
2023-09-08T00:07:40.323Z,100157.72
2023-09-08T00:10:43.176Z,100154.59
2023-09-08T00:13:47.453Z,100153.88
2023-09-08T00:16:50.442Z,100162.75
2023-09-08T00:19:53.310Z,100150.38
2023-09-08T00:22:56.235Z,100153.88
2023-09-08T00:25:59.925Z,100152.91
2023-09-08T00:29:04.204Z,100160.66
2023-09-08T00:32:07.239Z,100150.22
2023-09-08T00:35:13.114Z,100149.38
2023-09-08T00:38:16.045Z,100151.78
2023-09-08T00:41:18.923Z,100148.38
2023-09-08T00:44:23.108Z,100147.41
2023-09-08T00:47:26.048Z,100146.44
2023-09-08T00:50:28.994Z,100148.28
2023-09-08T00:53:31.877Z,100143.34
2023-09-08T00:56:35.115Z,100143.56
2023-09-08T00:59:39.651Z,100147.25
2023-09-08T01:02:42.582Z,100149.38
2023-09-08T01:05:47.911Z,100145.28
2023-09-08T01:08:51.267Z,100154.44
2023-09-08T01:11:56.652Z,100151.75
2023-09-08T01:15:01.244Z,100143.88
2023-09-08T01:18:04.294Z,100141.91
2023-09-08T01:21:27.789Z,100145.41
2023-09-08T01:24:40.271Z,100148.09
2023-09-08T01:27:46.933Z,100149.78
2023-09-08T01:30:50.079Z,100148.09
2023-09-08T01:33:53.288Z,100147.25
2023-09-08T01:36:57.106Z,100139.38
2023-09-08T01:39:59.940Z,100144.00
2023-09-08T01:43:04.324Z,100140.38
2023-09-08T01:46:07.167Z,100140.63
2023-09-08T01:49:10.089Z,100139.66
2023-09-08T01:52:13.142Z,100136.28
2023-09-08T01:55:17.354Z,100128.25
2023-09-08T01:58:21.569Z,100136.56
2023-09-08T02:01:24.378Z,100125.88
2023-09-08T02:04:27.240Z,100126.56
2023-09-08T02:07:30.146Z,100131.22
2023-09-08T02:10:33.117Z,100122.31
2023-09-08T02:13:37.284Z,100121.63
2023-09-08T02:16:41.014Z,100119.09
2023-09-08T02:19:43.972Z,100112.63
2023-09-08T02:22:49.101Z,100117.56
2023-09-08T02:25:51.900Z,100127.41
2023-09-08T02:28:56.053Z,100131.78
2023-09-08T02:31:58.795Z,100126.69
2023-09-08T02:35:01.662Z,100133.72
2023-09-08T02:38:04.548Z,100132.06
2023-09-08T02:41:07.791Z,100125.03
2023-09-08T02:44:11.902Z,100126.16
2023-09-08T02:47:14.790Z,100129.38
2023-09-08T02:50:17.582Z,100118.25
2023-09-08T02:53:20.336Z,100125.31
2023-09-08T02:56:23.145Z,100122.75
2023-09-08T02:59:27.291Z,100121.78
2023-09-08T03:02:30.288Z,100127.97
2023-09-08T03:05:33.964Z,100129.94
2023-09-08T03:08:38.079Z,100128.41
2023-09-08T03:11:40.978Z,100133.75
2023-09-08T03:14:46.023Z,100138.53
2023-09-08T03:17:48.845Z,100132.75
2023-09-08T03:20:51.871Z,100136.56
2023-09-08T03:23:54.709Z,100128.69
2023-09-08T03:26:59.074Z,100120.81
2023-09-08T03:30:04.210Z,100125.56
2023-09-08T03:33:07.171Z,100129.53
2023-09-08T03:36:10.370Z,100134.59
2023-09-08T03:39:13.211Z,100130.22
2023-09-08T03:42:16.005Z,100132.91
2023-09-08T03:45:20.276Z,100126.97
2023-09-08T03:48:23.107Z,100127.81
2023-09-08T03:51:25.863Z,100116.56
2023-09-08T03:54:28.683Z,100123.47
2023-09-08T03:57:31.463Z,100122.75
2023-09-08T04:00:35.657Z,100121.06
2023-09-08T04:03:38.772Z,100109.81
2023-09-08T04:06:41.851Z,100114.31
2023-09-08T04:09:44.748Z,100112.38
2023-09-08T04:12:47.578Z,100115.47
2023-09-08T04:15:51.953Z,100114.88
2023-09-08T04:18:56.741Z,100101.81
2023-09-08T04:21:59.674Z,100110.94
2023-09-08T04:25:02.533Z,100104.88
2023-09-08T04:28:05.856Z,100118.13
2023-09-08T04:31:10.047Z,100110.53
2023-09-08T04:34:12.994Z,100111.22
2023-09-08T04:37:16.628Z,100115.88
2023-09-08T04:40:19.385Z,100115.88
2023-09-08T04:43:22.180Z,100122.06
2023-09-08T04:46:26.353Z,100122.63
2023-09-08T04:49:29.858Z,100114.88
2023-09-08T04:52:32.679Z,100119.38
2023-09-08T04:55:35.475Z,100117.69
2023-09-08T04:58:38.265Z,100117.56
2023-09-08T05:01:42.405Z,100118.25
2023-09-08T05:04:45.279Z,100108.44
2023-09-08T05:07:49.185Z,100103.19
2023-09-08T05:10:51.986Z,100106.59
2023-09-08T05:13:54.735Z,100102.78
2023-09-08T05:16:59.087Z,100100.94
2023-09-08T05:20:01.853Z,100099.97
2023-09-08T05:23:04.739Z,100102.63
2023-09-08T05:26:07.531Z,100106.31
2023-09-08T05:29:11.055Z,100097.28
2023-09-08T05:32:15.267Z,100103.31
2023-09-08T05:35:18.121Z,100101.78
2023-09-08T05:38:20.952Z,100103.31
2023-09-08T05:41:23.739Z,100108.69
2023-09-08T05:44:26.886Z,100101.53
2023-09-08T05:47:32.284Z,100108.41
2023-09-08T05:50:35.139Z,100106.44
2023-09-08T05:53:40.692Z,100104.75
2023-09-08T05:56:43.526Z,100103.06
2023-09-08T05:59:46.405Z,100098.41
2023-09-08T06:02:50.818Z,100102.78
2023-09-08T06:05:53.752Z,100094.91
2023-09-08T06:08:56.609Z,100088.44
2023-09-08T06:11:59.355Z,100083.63
2023-09-08T06:15:02.199Z,100078.69
2023-09-08T06:18:06.859Z,100089.41
2023-09-08T06:21:09.875Z,100085.88
2023-09-08T06:24:12.806Z,100074.06
2023-09-08T06:27:16.411Z,100082.78
2023-09-08T06:30:19.426Z,100076.75
2023-09-08T06:33:24.735Z,100068.44
2023-09-08T06:36:27.798Z,100072.41
2023-09-08T06:39:30.906Z,100076.59
2023-09-08T06:42:33.824Z,100056.88
2023-09-08T06:45:36.709Z,100055.06
2023-09-08T06:48:40.842Z,100064.22
2023-09-08T06:51:43.606Z,100055.06
2023-09-08T06:54:47.051Z,100048.72
2023-09-08T06:57:49.963Z,100044.22
2023-09-08T07:00:55.622Z,100042.69
2023-09-08T07:04:00.148Z,100045.66
2023-09-08T07:07:05.029Z,100045.06
2023-09-08T07:10:08.545Z,100040.53
2023-09-08T07:13:11.775Z,100031.69
2023-09-08T07:16:14.792Z,100038.59
2023-09-08T07:19:18.987Z,100034.94
2023-09-08T07:22:21.798Z,100031.41
2023-09-08T07:25:24.657Z,100018.88
2023-09-08T07:28:27.508Z,100017.03
2023-09-08T07:31:30.268Z,100019.72
2023-09-08T07:34:34.515Z,100012.53
2023-09-08T07:37:37.308Z,100003.38
2023-09-08T07:40:40.196Z,100017.47
2023-09-08T07:43:43.931Z,99998.84
2023-09-08T07:46:47.377Z,100000.56
2023-09-08T07:49:51.572Z,99997.06
2023-09-08T07:52:55.236Z,99994.38
2023-09-08T07:55:58.053Z,100000.41
2023-09-08T07:59:00.925Z,99996.75
2023-09-08T08:02:03.958Z,99993.22
2023-09-08T08:05:10.241Z,99997.59
2023-09-08T08:08:13.660Z,99995.75
2023-09-08T08:11:17.294Z,99974.34
2023-09-08T08:14:20.147Z,99985.06
2023-09-08T08:17:23.057Z,99981.53
2023-09-08T08:20:27.423Z,99966.34
2023-09-08T08:23:30.251Z,99964.50
2023-09-08T08:26:34.191Z,99968.00
2023-09-08T08:29:37.057Z,99961.44
2023-09-08T08:32:40.079Z,99959.59
2023-09-08T08:35:50.491Z,99962.28
2023-09-08T08:38:53.301Z,99962.97
2023-09-08T08:41:56.151Z,99964.78
2023-09-08T08:44:59.827Z,99962.81
2023-09-08T08:48:03.893Z,99943.38
2023-09-08T08:51:10.470Z,99945.78
2023-09-08T08:54:13.699Z,99944.06
2023-09-08T08:57:17.202Z,99933.38
2023-09-08T09:00:20.394Z,99934.63
2023-09-08T09:03:23.487Z,99934.78
2023-09-08T09:06:27.840Z,99926.44
2023-09-08T09:09:30.774Z,99928.84
2023-09-08T09:12:33.588Z,99923.63
2023-09-08T09:15:36.375Z,99917.13
2023-09-08T09:18:55.357Z,99914.63
2023-09-08T09:22:00.095Z,99925.00
2023-09-08T09:25:06.543Z,99914.03
2023-09-08T09:28:09.465Z,99905.28
2023-09-08T09:31:12.428Z,99907.53
2023-09-08T09:34:15.265Z,99904.16
2023-09-08T09:37:20.381Z,99899.34
2023-09-08T09:40:23.268Z,99910.75
2023-09-08T09:43:26.210Z,99896.53
2023-09-08T09:46:30.135Z,99891.56
2023-09-08T09:49:33.680Z,99881.84
2023-09-08T09:52:41.031Z,99879.16
2023-09-08T09:55:44.847Z,99887.03
2023-09-08T09:58:48.838Z,99877.06
2023-09-08T10:01:52.114Z,99876.22
2023-09-08T10:04:55.605Z,99867.19
2023-09-08T10:08:00.079Z,99877.88
2023-09-08T10:11:06.241Z,99873.66
2023-09-08T10:14:12.302Z,99872.53
2023-09-08T10:17:18.588Z,99869.38
2023-09-08T10:20:22.505Z,99861.81
2023-09-08T10:23:29.814Z,99863.19
2023-09-08T10:26:33.162Z,99854.16
2023-09-08T10:29:36.833Z,99854.88
2023-09-08T10:32:42.525Z,99860.06
2023-09-08T10:35:45.617Z,99854.72
2023-09-08T10:38:52.085Z,99846.69
2023-09-08T10:42:15.121Z,99841.16
2023-09-08T10:45:18.812Z,99830.19
2023-09-08T10:48:21.777Z,99830.84
2023-09-08T10:51:26.846Z,99826.03
2023-09-08T10:54:46.865Z,99833.09
2023-09-08T10:57:49.868Z,99831.94
2023-09-08T11:00:55.507Z,99829.09
2023-09-08T11:04:00.124Z,99817.25
2023-09-08T11:07:03.663Z,99819.06
2023-09-08T11:10:08.685Z,99817.25
2023-09-08T11:13:12.674Z,99808.22
2023-09-08T11:16:16.114Z,99790.47
2023-09-08T11:19:18.985Z,99783.13
2023-09-08T11:22:24.944Z,99775.94
2023-09-08T11:25:29.087Z,99779.81
2023-09-08T11:28:32.029Z,99773.63
2023-09-08T11:31:35.884Z,99774.31
2023-09-08T11:34:39.082Z,99768.13
2023-09-08T11:37:42.696Z,99771.78
2023-09-08T11:40:47.125Z,99766.28
2023-09-08T11:43:50.065Z,99752.72
2023-09-08T11:46:53.116Z,99748.03
2023-09-08T11:49:56.348Z,99742.56
2023-09-08T11:53:00.208Z,99736.19
2023-09-08T11:56:04.706Z,99729.00
2023-09-08T11:59:07.593Z,99734.88
2023-09-08T12:02:10.432Z,99725.03
2023-09-08T12:05:22.514Z,99720.38
2023-09-08T12:08:27.245Z,99717.69
2023-09-08T12:11:35.986Z,99703.28
2023-09-08T12:14:42.846Z,99697.78
2023-09-08T12:17:50.354Z,99704.50
2023-09-08T12:21:05.867Z,99698.97
2023-09-08T12:24:08.958Z,99708.03
2023-09-08T12:27:13.216Z,99706.84
2023-09-08T12:30:19.148Z,99708.69
2023-09-08T12:33:22.391Z,99690.59
2023-09-08T12:36:25.604Z,99686.94
2023-09-08T12:39:28.461Z,99684.78
2023-09-08T12:42:32.655Z,99682.94
2023-09-08T12:45:38.282Z,99675.75
2023-09-08T12:48:41.116Z,99684.63
2023-09-08T12:51:44.034Z,99669.25
2023-09-08T12:54:46.807Z,99675.78
2023-09-08T12:57:53.322Z,99669.75
2023-09-08T13:00:56.144Z,99658.88
2023-09-08T13:03:58.992Z,99648.16
2023-09-08T13:07:02.696Z,99643.50
2023-09-08T13:10:05.961Z,99644.31
2023-09-08T13:13:10.177Z,99646.34
2023-09-08T13:16:13.096Z,99633.13
2023-09-08T13:19:15.967Z,99634.09
2023-09-08T13:22:18.777Z,99641.66
2023-09-08T13:25:21.781Z,99629.75
2023-09-08T13:28:26.054Z,99627.06
2023-09-08T13:31:28.900Z,99624.41
2023-09-08T13:34:31.805Z,99620.09
2023-09-08T13:37:35.565Z,99619.06
2023-09-08T13:40:38.558Z,99611.38
2023-09-08T13:43:45.622Z,99602.13
2023-09-08T13:46:50.566Z,99607.03
2023-09-08T13:49:55.460Z,99594.47
2023-09-08T13:53:01.665Z,99600.13
2023-09-08T13:56:09.197Z,99595.59
2023-09-08T13:59:18.431Z,99604.50
2023-09-08T14:05:29.643Z,99581.38
2023-09-08T14:09:09.661Z,99589.28
2023-09-08T14:15:08.706Z,99597.63
2023-09-08T14:18:11.711Z,99586.25
2023-09-08T14:21:14.715Z,99583.56
2023-09-08T14:24:17.559Z,99588.25
2023-09-08T14:27:20.712Z,99575.88
2023-09-08T14:30:24.943Z,99591.94
2023-09-08T14:33:27.818Z,99581.53
2023-09-08T14:36:30.672Z,99581.53
2023-09-08T14:39:33.452Z,99562.78
2023-09-08T14:42:36.234Z,99562.94
2023-09-08T14:45:40.489Z,99569.66
2023-09-08T14:48:43.407Z,99554.75
2023-09-08T14:51:46.251Z,99562.28
2023-09-08T14:54:49.101Z,99559.59
2023-09-08T14:57:51.956Z,99551.03
2023-09-08T15:00:56.249Z,99553.41
2023-09-08T15:03:59.232Z,99552.53
2023-09-08T15:07:02.095Z,99547.53
2023-09-08T15:10:05.620Z,99541.66
2023-09-08T15:13:08.388Z,99542.34
2023-09-08T15:16:12.665Z,99541.50
2023-09-08T15:19:15.540Z,99548.19
2023-09-08T15:22:18.573Z,99531.25
2023-09-08T15:25:21.977Z,99536.63
2023-09-08T15:28:24.815Z,99540.31
2023-09-08T15:31:29.257Z,99533.78
2023-09-08T15:34:32.179Z,99536.13
2023-09-08T15:37:35.358Z,99539.78
2023-09-08T15:40:39.716Z,99531.91
2023-09-08T15:43:42.882Z,99531.25
2023-09-08T15:46:47.373Z,99536.44
2023-09-08T15:49:50.256Z,99533.41
2023-09-08T15:52:53.006Z,99538.94
2023-09-08T15:55:56.729Z,99531.72
2023-09-08T15:59:00.013Z,99535.41
2023-09-08T16:02:04.464Z,99534.56
2023-09-08T16:05:08.086Z,99533.22
2023-09-08T16:08:11.648Z,99531.53
2023-09-08T16:11:14.843Z,99535.06
2023-09-08T16:14:17.695Z,99536.41
2023-09-08T16:17:21.970Z,99530.22
2023-09-08T16:20:24.854Z,99545.56
2023-09-08T16:23:27.970Z,99536.69
2023-09-08T16:26:30.880Z,99540.38
2023-09-08T16:29:33.713Z,99536.19
2023-09-08T16:32:39.058Z,99537.00
2023-09-08T16:35:43.439Z,99536.88
2023-09-08T16:38:46.224Z,99531.88
2023-09-08T16:41:49.005Z,99525.09
2023-09-08T16:44:51.847Z,99528.56
2023-09-08T16:47:56.094Z,99523.91
2023-09-08T16:50:58.891Z,99526.19
2023-09-08T16:54:01.786Z,99523.22
2023-09-08T16:57:04.872Z,99527.72
2023-09-08T17:00:08.658Z,99529.69
2023-09-08T17:03:13.149Z,99534.75
2023-09-08T17:06:16.207Z,99535.91
2023-09-08T17:09:19.580Z,99516.63
2023-09-08T17:12:22.424Z,99519.97
2023-09-08T17:15:25.354Z,99523.19
2023-09-08T17:18:30.755Z,99517.03
2023-09-08T17:21:33.648Z,99519.88
2023-09-08T17:24:36.538Z,99518.69
2023-09-08T17:27:39.459Z,99514.00
2023-09-08T17:30:42.608Z,99508.28
2023-09-08T17:33:46.779Z,99520.16
2023-09-08T17:36:49.609Z,99504.94
2023-09-08T17:39:52.391Z,99504.56
2023-09-08T17:42:55.157Z,99504.38
2023-09-08T17:45:58.170Z,99506.91
2023-09-08T17:49:02.975Z,99507.53
2023-09-08T17:52:06.265Z,99505.41
2023-09-08T17:55:09.470Z,99508.00
2023-09-08T17:58:12.288Z,99499.16
2023-09-08T18:01:15.999Z,99500.72
2023-09-08T18:04:20.602Z,99495.81
2023-09-08T18:07:23.743Z,99502.47
2023-09-08T18:10:26.650Z,99497.72
2023-09-08T18:13:29.589Z,99499.00
2023-09-08T18:16:34.892Z,99504.03
2023-09-08T18:19:41.173Z,99502.16
2023-09-08T18:22:44.029Z,99495.91
2023-09-08T18:25:46.896Z,99497.50
2023-09-08T18:28:49.873Z,99487.13
2023-09-08T18:31:52.836Z,99489.81
2023-09-08T18:34:57.146Z,99494.31
2023-09-08T18:38:00.683Z,99481.78
2023-09-08T18:41:03.841Z,99478.66
2023-09-08T18:44:06.707Z,99468.56
2023-09-08T18:47:09.489Z,99468.81
2023-09-08T18:50:13.920Z,99458.28
2023-09-08T18:53:16.825Z,99457.38
2023-09-08T18:56:19.703Z,99458.03
2023-09-08T18:59:22.551Z,99446.53
2023-09-08T19:02:25.894Z,99452.88
2023-09-08T19:05:30.347Z,99449.50
2023-09-08T19:08:33.406Z,99451.63
2023-09-08T19:11:36.302Z,99443.91
2023-09-08T19:14:39.197Z,99443.16
2023-09-08T19:17:42.145Z,99432.03
2023-09-08T19:20:46.478Z,99431.03
2023-09-08T19:23:50.988Z,99426.69
2023-09-08T19:26:53.925Z,99425.81
2023-09-08T19:29:57.010Z,99427.66
2023-09-08T19:33:00.045Z,99431.63
2023-09-08T19:36:04.698Z,99429.81
2023-09-08T19:39:08.102Z,99426.22
2023-09-08T19:42:11.140Z,99432.00
2023-09-08T19:45:13.982Z,99427.06
2023-09-08T19:48:16.861Z,99417.38
2023-09-08T19:51:22.965Z,99427.66
2023-09-08T19:54:26.021Z,99421.63
2023-09-08T19:57:28.843Z,99415.44
2023-09-08T20:00:31.744Z,99416.88
2023-09-08T20:03:35.535Z,99420.69
2023-09-08T20:06:40.918Z,99410.72
2023-09-08T20:09:43.769Z,99413.81
2023-09-08T20:12:48.314Z,99406.50
2023-09-08T20:15:59.582Z,99410.16
2023-09-08T20:19:02.524Z,99408.94
2023-09-08T20:22:06.805Z,99401.75
2023-09-08T20:25:10.641Z,99399.81
2023-09-08T20:28:13.899Z,99400.72
2023-09-08T20:31:17.692Z,99403.78
2023-09-08T20:34:20.760Z,99392.78
2023-09-08T20:37:24.974Z,99390.72
2023-09-08T20:40:27.811Z,99384.97
2023-09-08T20:43:30.619Z,99385.97
2023-09-08T20:46:33.535Z,99384.47
2023-09-08T20:49:37.422Z,99382.94
2023-09-08T20:52:41.704Z,99375.78
2023-09-08T20:55:44.486Z,99375.22
2023-09-08T20:58:47.318Z,99370.56
2023-09-08T21:01:50.178Z,99364.88
2023-09-08T21:04:53.033Z,99376.06
2023-09-08T21:07:57.236Z,99357.13
2023-09-08T21:11:00.338Z,99366.53
2023-09-08T21:14:03.197Z,99366.38
2023-09-08T21:17:06.422Z,99358.81
2023-09-08T21:20:10.068Z,99358.97
2023-09-08T21:23:14.350Z,99363.31
2023-09-08T21:26:18.102Z,99357.06
2023-09-08T21:29:20.917Z,99351.09
2023-09-08T21:32:24.558Z,99345.03
2023-09-08T21:35:27.716Z,99348.94
2023-09-08T21:38:31.955Z,99338.78
2023-09-08T21:41:35.388Z,99333.44
2023-09-08T21:44:38.292Z,99332.47
2023-09-08T21:47:41.259Z,99332.84
2023-09-08T21:50:44.074Z,99322.84
2023-09-08T21:53:48.266Z,99323.03
2023-09-08T21:56:51.841Z,99316.06
2023-09-08T21:59:54.622Z,99316.72
2023-09-08T22:02:57.641Z,99320.06
2023-09-08T22:06:00.638Z,99309.22
2023-09-08T22:09:06.076Z,99299.38
2023-09-08T22:12:08.994Z,99298.41
2023-09-08T22:15:12.198Z,99301.06
2023-09-08T22:18:15.043Z,99300.75
2023-09-08T22:21:17.846Z,99302.41
2023-09-08T22:24:22.076Z,99304.09
2023-09-08T22:27:24.928Z,99295.13
2023-09-08T22:30:27.836Z,99291.25
2023-09-08T22:33:31.555Z,99292.09
2023-09-08T22:36:34.522Z,99291.25
2023-09-08T22:39:38.873Z,99288.41
2023-09-08T22:42:41.803Z,99290.25
2023-09-08T22:45:44.785Z,99279.25
2023-09-08T22:48:47.878Z,99278.41
2023-09-08T22:51:50.659Z,99279.41
2023-09-08T22:55:02.356Z,99278.25
2023-09-08T22:58:11.957Z,99278.41
2023-09-08T23:01:14.883Z,99277.44
2023-09-08T23:04:17.768Z,99273.75
2023-09-08T23:07:21.645Z,99269.25
2023-09-08T23:10:26.000Z,99267.41
2023-09-08T23:13:28.822Z,99270.09
2023-09-08T23:16:31.671Z,99273.59
2023-09-08T23:19:34.519Z,99266.25
2023-09-08T23:22:37.980Z,99264.41
2023-09-08T23:25:42.170Z,99265.41
2023-09-08T23:28:44.989Z,99254.88
2023-09-08T23:31:47.754Z,99256.56
2023-09-08T23:34:50.508Z,99257.38
2023-09-08T23:37:53.382Z,99256.56
2023-09-08T23:40:57.557Z,99262.72
2023-09-08T23:44:00.391Z,99253.03
2023-09-08T23:47:05.086Z,99249.53
2023-09-08T23:50:08.935Z,99253.03
2023-09-08T23:53:11.836Z,99264.56
2023-09-08T23:56:15.975Z,99259.22
2023-09-08T23:59:18.847Z,99268.91
